Time;durP1;ratioP1;P1;durP2;ratioP2;P2;SDS_P1;SDS_P2;PMS_P1;PMS_P2;Temp;Humidity;BMP_temperature;BMP_pressure;BME280_temperature;BME280_humidity;BME280_pressure;Samples;Min_cycle;Max_cycle;Signal;HPM_P1;HPM_P2
2021/03/30 00:02:17;;;;;;;17.30;7.67;;;;;;;7.04;72.59;96909.50;5012681;28;20245;-61
2021/03/30 00:04:44;;;;;;;11.43;6.10;;;;;;;7.01;72.62;96915.16;5012536;28;20256;-61
2021/03/30 00:07:10;;;;;;;12.07;5.97;;;;;;;7.01;72.74;96915.94;5012282;28;20226;-62
2021/03/30 00:09:37;;;;;;;9.67;5.20;;;;;;;6.97;73.83;96916.63;5012219;28;20217;-61
2021/03/30 00:12:05;;;;;;;11.57;4.63;;;;;;;6.91;73.89;96913.97;5012045;28;20309;-62
2021/03/30 00:14:33;;;;;;;8.70;4.43;;;;;;;6.88;74.38;96898.91;5012352;28;20623;-61
2021/03/30 00:17:00;;;;;;;6.93;4.13;;;;;;;6.86;74.28;96900.97;5012055;28;20240;-61
2021/03/30 00:19:27;;;;;;;9.23;4.83;;;;;;;6.79;74.90;96905.50;5012234;28;20199;-61
2021/03/30 00:21:54;;;;;;;61.27;21.37;;;;;;;6.78;74.74;96900.56;5012078;28;20220;-62
2021/03/30 00:24:20;;;;;;;42.40;17.20;;;;;;;6.76;75.46;96900.81;5012198;28;20206;-61
2021/03/30 00:26:47;;;;;;;17.63;7.50;;;;;;;6.78;74.99;96897.97;5011737;28;20321;-63
2021/03/30 00:29:14;;;;;;;10.03;5.67;;;;;;;6.63;74.67;96895.94;5012155;28;20202;-60
2021/03/30 00:31:42;;;;;;;10.03;5.70;;;;;;;6.60;75.30;96891.25;5011662;28;20572;-61
2021/03/30 00:34:09;;;;;;;13.47;5.77;;;;;;;6.63;75.72;96885.59;5012187;28;20198;-61
2021/03/30 00:36:35;;;;;;;10.90;5.90;;;;;;;6.58;74.65;96882.94;5011874;28;20203;-61
2021/03/30 00:39:02;;;;;;;13.10;6.10;;;;;;;6.55;73.98;96886.00;5011716;28;20554;-61
2021/03/30 00:41:29;;;;;;;12.13;6.07;;;;;;;6.60;73.51;96877.53;5011685;28;20201;-62
2021/03/30 00:43:56;;;;;;;9.27;5.40;;;;;;;6.60;73.01;96880.91;5011364;28;20658;-61
2021/03/30 00:46:25;;;;;;;10.40;6.20;;;;;;;6.49;73.67;96874.00;5011311;28;20237;-62
2021/03/30 00:48:53;;;;;;;8.63;5.50;;;;;;;6.39;73.57;96877.19;5011350;28;20198;-61
2021/03/30 00:51:22;;;;;;;14.07;6.70;;;;;;;6.36;73.97;96880.25;5011503;28;20194;-62
2021/03/30 00:53:50;;;;;;;12.40;6.20;;;;;;;6.31;74.60;96877.59;5011369;28;20194;-62
2021/03/30 00:56:18;;;;;;;15.70;6.40;;;;;;;6.26;74.91;96884.44;5011707;28;20290;-61
2021/03/30 00:58:48;;;;;;;22.50;9.43;;;;;;;6.32;73.63;96880.94;5011600;28;20210;-61
2021/03/30 01:01:15;;;;;;;11.10;5.60;;;;;;;6.33;74.27;96864.41;5011270;28;20191;-62
2021/03/30 01:03:42;;;;;;;11.20;4.50;;;;;;;6.32;73.49;96873.22;5011280;28;20249;-62
2021/03/30 01:06:10;;;;;;;13.57;4.97;;;;;;;6.33;72.98;96869.59;5011206;28;20253;-62
2021/03/30 01:08:53;;;;;;;10.83;4.70;;;;;;;6.22;73.79;96868.66;5011086;28;20191;-62
2021/03/30 01:11:32;;;;;;;9.43;4.43;;;;;;;6.07;74.55;96870.94;5011423;28;20213;-63
2021/03/30 01:14:10;;;;;;;6.83;4.37;;;;;;;6.09;75.28;96863.75;5011128;28;20199;-61
2021/03/30 01:16:40;;;;;;;9.33;4.37;;;;;;;6.05;75.26;96871.19;5011087;28;20201;-61
2021/03/30 01:19:20;;;;;;;9.77;4.93;;;;;;;5.97;76.05;96868.97;5011256;28;20202;-61
2021/03/30 01:22:37;;;;;;;9.97;5.33;;;;;;;5.83;76.19;96880.50;5011135;28;20198;-62
2021/03/30 01:25:05;;;;;;;9.73;5.33;;;;;;;5.78;76.64;96883.00;5011345;28;20228;-61
2021/03/30 01:27:38;;;;;;;8.40;5.60;;;;;;;5.70;76.32;96885.16;5010620;28;20722;-61
2021/03/30 01:30:08;;;;;;;11.47;5.93;;;;;;;5.59;76.68;96889.31;5011240;28;20230;-62
2021/03/30 01:32:38;;;;;;;9.93;5.90;;;;;;;5.51;77.07;96889.66;5010755;28;20293;-61
2021/03/30 01:35:10;;;;;;;12.03;6.50;;;;;;;5.59;76.88;96884.16;5011026;28;20206;-62
2021/03/30 01:37:42;;;;;;;13.13;6.43;;;;;;;5.49;76.85;96882.16;5011023;28;20202;-62
2021/03/30 01:40:11;;;;;;;16.50;7.43;;;;;;;5.37;76.49;96875.47;5010719;28;20204;-63
2021/03/30 01:42:39;;;;;;;15.10;6.90;;;;;;;5.39;76.51;96879.38;5010543;28;20312;-62
2021/03/30 01:45:09;;;;;;;15.63;7.03;;;;;;;5.26;77.07;96871.09;5010941;28;20203;-63
2021/03/30 01:47:38;;;;;;;13.23;5.90;;;;;;;5.23;76.90;96879.28;5010536;28;20240;-61
2021/03/30 01:50:06;;;;;;;17.03;6.17;;;;;;;5.09;77.08;96878.69;5010533;28;20338;-61
2021/03/30 01:52:34;;;;;;;10.53;5.87;;;;;;;4.96;77.15;96877.13;5010536;28;20761;-60
2021/03/30 01:55:02;;;;;;;19.47;6.37;;;;;;;4.92;77.63;96883.75;5010768;28;20750;-60
2021/03/30 01:57:31;;;;;;;12.57;6.10;;;;;;;4.63;78.04;96882.78;5010567;28;20587;-60
2021/03/30 01:59:59;;;;;;;10.57;6.27;;;;;;;4.45;78.69;96882.88;5010237;28;20587;-60
2021/03/30 02:02:28;;;;;;;11.20;5.60;;;;;;;4.33;79.11;96867.38;5010038;28;20669;-60
2021/03/30 02:04:56;;;;;;;11.00;5.63;;;;;;;4.21;78.96;96871.72;5010351;28;20574;-63
2021/03/30 02:07:24;;;;;;;11.53;5.80;;;;;;;4.04;78.91;96868.19;5010143;28;20229;-62
2021/03/30 02:09:55;;;;;;;10.37;6.43;;;;;;;3.93;79.46;96863.81;5010353;28;20585;-62
2021/03/30 02:12:24;;;;;;;11.33;6.40;;;;;;;3.85;79.43;96858.94;5010235;28;20285;-62
2021/03/30 02:14:51;;;;;;;11.10;6.17;;;;;;;3.78;80.21;96861.59;5010161;28;20248;-62
2021/03/30 02:17:24;;;;;;;13.60;7.23;;;;;;;3.75;79.92;96861.22;5010458;28;20202;-61
2021/03/30 02:19:58;;;;;;;14.63;7.17;;;;;;;3.67;80.16;96857.19;5010298;28;20195;-62
2021/03/30 02:22:30;;;;;;;17.80;9.03;;;;;;;3.61;81.50;96860.59;5010644;28;20633;-62
2021/03/30 02:24:59;;;;;;;22.57;10.30;;;;;;;3.65;81.66;96868.66;5010356;28;20285;-62
2021/03/30 02:27:27;;;;;;;17.47;7.73;;;;;;;3.57;82.77;96863.81;5009954;28;20792;-62
2021/03/30 02:29:55;;;;;;;17.23;7.77;;;;;;;3.54;82.35;96866.84;5010198;28;20249;-62
2021/03/30 02:32:25;;;;;;;17.23;6.87;;;;;;;3.47;81.87;96870.25;5010032;28;20567;-63
2021/03/30 02:34:56;;;;;;;19.60;7.63;;;;;;;3.52;82.93;96861.91;5010098;28;20194;-60
2021/03/30 02:37:24;;;;;;;15.53;7.23;;;;;;;3.53;82.24;96857.56;5010309;28;20240;-62
2021/03/30 02:39:53;;;;;;;11.60;6.30;;;;;;;3.25;83.69;96856.25;5010180;28;20202;-61
2021/03/30 02:42:21;;;;;;;11.97;6.53;;;;;;;3.27;83.67;96853.47;5009655;28;20234;-61
2021/03/30 02:44:51;;;;;;;15.70;6.40;;;;;;;3.28;83.29;96860.97;5010150;28;20206;-60
2021/03/30 02:47:20;;;;;;;16.43;6.17;;;;;;;3.16;83.17;96867.00;5009960;28;20226;-59
2021/03/30 02:49:47;;;;;;;16.50;6.53;;;;;;;3.10;83.52;96863.50;5010017;28;20190;-61
2021/03/30 02:52:16;;;;;;;11.20;5.63;;;;;;;3.00;83.43;96860.63;5008624;28;20247;-62
2021/03/30 02:54:43;;;;;;;11.30;6.40;;;;;;;2.97;84.05;96868.78;5010155;28;20202;-61
2021/03/30 02:57:13;;;;;;;9.93;5.87;;;;;;;2.87;84.40;96865.91;5009720;28;20671;-62
2021/03/30 02:59:40;;;;;;;10.13;6.20;;;;;;;2.82;83.45;96863.16;5009790;28;20195;-60
2021/03/30 03:02:08;;;;;;;12.37;5.67;;;;;;;2.91;83.16;96869.59;5009929;28;20194;-61
2021/03/30 03:04:35;;;;;;;12.07;6.03;;;;;;;2.84;83.58;96867.09;5009821;28;20274;-62
2021/03/30 03:07:03;;;;;;;9.10;5.97;;;;;;;2.66;83.76;96867.03;5009737;28;20226;-61
2021/03/30 03:09:33;;;;;;;8.87;5.73;;;;;;;2.52;84.81;96881.75;5010002;28;20284;-62
2021/03/30 03:12:00;;;;;;;12.87;6.40;;;;;;;2.40;84.33;96868.00;5010831;28;20231;-62
2021/03/30 03:14:27;;;;;;;15.43;5.87;;;;;;;2.52;84.29;96868.94;5013538;28;20221;-60
2021/03/30 03:16:56;;;;;;;14.40;5.83;;;;;;;2.39;83.88;96869.00;5013336;28;20677;-60
2021/03/30 03:19:24;;;;;;;13.77;6.20;;;;;;;2.26;84.35;96868.31;5013182;28;20289;-61
2021/03/30 03:21:52;;;;;;;15.63;6.20;;;;;;;2.28;85.30;96874.81;5013274;28;20556;-61
2021/03/30 03:24:19;;;;;;;9.47;6.23;;;;;;;2.27;85.09;96870.66;5013053;28;20202;-61
2021/03/30 03:26:47;;;;;;;10.67;5.57;;;;;;;2.26;85.07;96871.66;5013031;28;20309;-61
2021/03/30 03:29:16;;;;;;;15.30;7.10;;;;;;;2.21;85.65;96866.34;5012994;28;20221;-61
2021/03/30 03:31:44;;;;;;;12.23;6.50;;;;;;;2.23;86.29;96872.06;5013020;28;20546;-61
2021/03/30 03:34:11;;;;;;;18.83;7.47;;;;;;;2.19;86.05;96867.56;5013261;28;20197;-62
2021/03/30 03:36:40;;;;;;;15.57;7.37;;;;;;;2.18;86.31;96874.47;5013178;28;20202;-63
2021/03/30 03:39:09;;;;;;;15.30;7.77;;;;;;;2.21;86.52;96868.91;5012889;28;20194;-62
2021/03/30 03:41:36;;;;;;;16.63;7.80;;;;;;;2.22;86.99;96870.50;5012999;28;20198;-62
2021/03/30 03:44:05;;;;;;;15.23;7.70;;;;;;;2.25;86.53;96875.22;5012850;28;20284;-62
2021/03/30 03:46:32;;;;;;;12.60;6.90;;;;;;;2.27;86.13;96875.78;5012560;28;20578;-62
2021/03/30 03:48:59;;;;;;;21.30;7.30;;;;;;;2.26;86.34;96876.78;5012929;28;20202;-61
2021/03/30 03:51:31;;;;;;;13.23;6.73;;;;;;;2.27;85.74;96875.78;5012563;28;20229;-61
2021/03/30 03:54:01;;;;;;;15.50;7.10;;;;;;;2.32;85.94;96880.31;5012533;28;20287;-62
2021/03/30 03:56:31;;;;;;;12.67;6.97;;;;;;;2.27;86.31;96878.38;5012580;28;20718;-60
2021/03/30 03:59:02;;;;;;;21.73;9.20;;;;;;;2.14;85.54;96875.88;5012484;28;20206;-62
2021/03/30 04:01:41;;;;;;;15.43;7.97;;;;;;;2.15;86.38;96878.22;5013102;28;20204;-62
2021/03/30 04:04:17;;;;;;;12.60;8.13;;;;;;;2.03;86.07;96885.00;5012441;28;20303;-61
2021/03/30 04:06:49;;;;;;;15.40;8.20;;;;;;;2.06;86.32;96883.78;5012271;28;20221;-62
2021/03/30 04:09:20;;;;;;;18.43;8.37;;;;;;;2.05;86.03;96889.91;5012223;28;20198;-60
2021/03/30 04:11:51;;;;;;;14.37;8.40;;;;;;;2.05;86.83;96895.03;5012712;28;20704;-61
2021/03/30 04:14:19;;;;;;;13.73;7.50;;;;;;;1.91;86.71;96896.09;5012392;28;20624;-62
2021/03/30 04:16:47;;;;;;;18.97;9.40;;;;;;;1.91;85.67;96894.31;5012225;28;20672;-61
2021/03/30 04:19:15;;;;;;;16.77;7.97;;;;;;;1.88;87.25;96906.75;5012053;28;21048;-61
2021/03/30 04:21:42;;;;;;;14.53;7.80;;;;;;;1.93;86.92;96897.47;5011892;28;20202;-62
2021/03/30 04:24:09;;;;;;;16.03;9.20;;;;;;;1.89;87.39;96900.66;5011133;28;20209;-62
2021/03/30 04:26:36;;;;;;;18.13;9.33;;;;;;;1.84;88.67;96898.69;5011882;28;20209;-62
2021/03/30 04:29:04;;;;;;;13.20;8.17;;;;;;;1.89;88.54;96898.88;5012045;28;20250;-63
2021/03/30 04:31:31;;;;;;;19.77;9.77;;;;;;;1.91;87.78;96906.34;5012087;28;20285;-62
2021/03/30 04:33:58;;;;;;;27.50;9.90;;;;;;;2.02;88.22;96895.47;5011825;28;20838;-63
2021/03/30 04:36:25;;;;;;;20.53;10.37;;;;;;;2.00;87.85;96903.34;5011525;28;20250;-61
2021/03/30 04:38:52;;;;;;;17.20;10.07;;;;;;;2.05;87.29;96906.06;5012250;28;20240;-62
2021/03/30 04:41:19;;;;;;;16.07;9.23;;;;;;;2.09;87.00;96907.25;5011937;28;20194;-62
2021/03/30 04:43:46;;;;;;;15.97;8.90;;;;;;;2.10;87.64;96913.16;5011440;28;20269;-62
2021/03/30 04:46:13;;;;;;;17.77;8.90;;;;;;;2.09;87.53;96901.34;5011504;28;20272;-62
2021/03/30 04:48:40;;;;;;;15.73;9.53;;;;;;;2.16;87.73;96904.66;5011118;28;20236;-62
2021/03/30 04:51:07;;;;;;;19.23;10.30;;;;;;;2.23;86.95;96915.69;5011046;28;20686;-62
2021/03/30 04:53:34;;;;;;;43.60;23.13;;;;;;;2.34;86.59;96909.13;5011078;28;20241;-62
2021/03/30 04:56:02;;;;;;;32.17;14.40;;;;;;;2.41;86.47;96912.41;5010858;28;20197;-62
2021/03/30 04:58:29;;;;;;;38.00;23.03;;;;;;;2.54;85.44;96914.91;5010712;28;20740;-64
2021/03/30 05:00:56;;;;;;;45.40;27.50;;;;;;;2.65;85.54;96911.66;5011054;28;20664;-61
2021/03/30 05:03:23;;;;;;;33.83;20.33;;;;;;;2.79;85.19;96912.38;5010779;28;20190;-63
2021/03/30 05:05:53;;;;;;;36.93;16.90;;;;;;;2.83;84.10;96909.19;5010034;28;20288;-62
2021/03/30 05:08:21;;;;;;;42.00;16.87;;;;;;;2.90;85.59;96919.38;5010041;28;20229;-61
2021/03/30 05:10:50;;;;;;;40.30;20.77;;;;;;;3.07;84.75;96919.66;5011039;28;20230;-62
2021/03/30 05:13:17;;;;;;;54.63;28.27;;;;;;;3.14;84.54;96923.72;5010573;28;20735;-62
2021/03/30 05:15:44;;;;;;;36.13;14.93;;;;;;;3.20;84.71;96922.09;5010615;28;20617;-62
2021/03/30 05:18:11;;;;;;;48.20;20.47;;;;;;;3.29;83.43;96921.59;5010497;28;20754;-62
2021/03/30 05:20:38;;;;;;;37.10;17.33;;;;;;;3.38;82.94;96922.13;5010679;28;20193;-62
2021/03/30 05:23:05;;;;;;;25.33;11.83;;;;;;;3.44;83.04;96921.25;5009258;28;20202;-62
2021/03/30 05:25:33;;;;;;;20.30;11.73;;;;;;;3.50;82.07;96929.91;5010485;28;20202;-61
2021/03/30 05:28:00;;;;;;;24.90;11.67;;;;;;;3.86;81.63;96919.66;5010022;28;20723;-61
2021/03/30 05:30:27;;;;;;;17.97;10.87;;;;;;;4.27;81.07;96926.69;5010577;28;20205;-62
2021/03/30 05:32:54;;;;;;;26.60;11.60;;;;;;;5.10;77.86;96922.28;5010292;28;20198;-61
2021/03/30 05:35:21;;;;;;;20.33;11.77;;;;;;;6.26;72.47;96921.38;5009783;28;20260;-62
2021/03/30 05:37:47;;;;;;;28.00;13.07;;;;;;;7.12;69.13;96932.38;5010480;28;20340;-63
2021/03/30 05:40:17;;;;;;;20.13;10.77;;;;;;;8.17;62.71;96927.03;5010311;28;20202;-61
2021/03/30 05:42:45;;;;;;;43.00;11.40;;;;;;;8.39;61.17;96933.00;5009819;28;20664;-61
2021/03/30 05:45:15;;;;;;;16.53;8.77;;;;;;;8.80;58.50;96931.59;5010027;28;20195;-62
2021/03/30 05:47:44;;;;;;;15.37;8.63;;;;;;;8.52;59.41;96935.22;5010296;28;20280;-60
2021/03/30 05:50:16;;;;;;;30.20;12.03;;;;;;;8.36;60.21;96933.50;5010014;28;20298;-62
2021/03/30 05:52:46;;;;;;;20.03;8.50;;;;;;;7.82;61.87;96940.31;5010130;28;20205;-61
2021/03/30 05:55:21;;;;;;;20.77;10.00;;;;;;;7.30;63.53;96929.53;5010174;28;20265;-61
2021/03/30 05:57:53;;;;;;;20.93;11.60;;;;;;;7.11;64.56;96938.56;5010317;28;20289;-64
2021/03/30 06:00:22;;;;;;;26.70;12.53;;;;;;;7.16;66.05;96936.06;5009812;28;20650;-62
2021/03/30 06:02:52;;;;;;;30.37;12.50;;;;;;;7.26;65.30;96934.41;5009961;28;20202;-62
2021/03/30 06:05:19;;;;;;;23.50;12.47;;;;;;;7.10;65.57;96935.19;5009983;28;20245;-62
2021/03/30 06:07:46;;;;;;;19.60;11.23;;;;;;;7.37;66.15;96932.75;5009848;28;20325;-61
2021/03/30 06:10:16;;;;;;;20.53;11.60;;;;;;;7.44;66.98;96935.94;5009823;28;20194;-63
2021/03/30 06:12:43;;;;;;;25.87;11.87;;;;;;;7.10;66.54;96940.38;5010194;28;20289;-61
2021/03/30 06:15:12;;;;;;;21.57;12.40;;;;;;;7.17;67.13;96937.63;5009899;28;20553;-61
2021/03/30 06:17:45;;;;;;;20.40;11.10;;;;;;;7.52;66.03;96943.28;5009828;28;20209;-62
2021/03/30 06:20:13;;;;;;;23.83;12.40;;;;;;;7.68;66.45;96941.69;5009799;28;20226;-62
2021/03/30 06:22:48;;;;;;;24.30;12.70;;;;;;;7.87;65.35;96950.75;5009687;28;20285;-62
2021/03/30 06:25:54;;;;;;;38.77;11.70;;;;;;;8.24;63.00;96945.75;5009493;28;20260;-62
2021/03/30 06:28:24;;;;;;;25.70;11.20;;;;;;;8.42;61.47;96944.72;5007219;28;20280;-60
2021/03/30 06:31:00;;;;;;;26.53;12.13;;;;;;;8.37;60.78;96945.41;5009582;28;20202;-60
2021/03/30 06:33:29;;;;;;;27.67;11.27;;;;;;;8.49;60.37;96942.69;5010000;28;20194;-61
2021/03/30 06:36:11;;;;;;;22.17;10.30;;;;;;;8.41;61.35;96949.09;5009614;28;20585;-60
2021/03/30 06:39:04;;;;;;;17.27;8.10;;;;;;;8.50;62.13;96945.06;5009628;28;20220;-60
2021/03/30 06:41:36;;;;;;;17.47;9.60;;;;;;;8.82;59.41;96954.66;4995214;28;20285;-62
2021/03/30 06:46:53;;;;;;;17.47;7.50;;;;;;;9.09;60.35;96945.06;5010497;28;20233;-60
2021/03/30 06:49:22;;;;;;;8.77;5.70;;;;;;;9.50;55.48;96952.09;5013308;28;20670;-60
2021/03/30 06:51:49;;;;;;;11.13;6.80;;;;;;;9.66;57.67;96954.78;5013486;28;20214;-61
2021/03/30 06:54:16;;;;;;;9.43;6.13;;;;;;;9.78;56.09;96952.78;5013676;28;20293;-61
2021/03/30 06:56:52;;;;;;;11.93;6.63;;;;;;;10.10;55.30;96960.47;5013230;28;20194;-61
2021/03/30 06:59:20;;;;;;;10.30;6.00;;;;;;;9.93;55.17;96955.44;5013144;28;20198;-61
2021/03/30 07:01:49;;;;;;;9.80;5.40;;;;;;;9.70;57.16;96950.66;5013230;28;20199;-61
2021/03/30 07:04:18;;;;;;;13.47;5.47;;;;;;;10.06;57.98;96954.22;5013162;28;20638;-60
2021/03/30 07:06:53;;;;;;;10.13;5.43;;;;;;;10.21;53.88;96957.66;5013313;28;20256;-60
2021/03/30 07:09:22;;;;;;;16.47;6.50;;;;;;;10.49;51.91;96955.69;5012916;28;20281;-61
2021/03/30 07:11:50;;;;;;;13.73;5.13;;;;;;;10.72;51.25;96952.59;5012943;28;20199;-60
2021/03/30 07:14:22;;;;;;;16.57;6.63;;;;;;;10.76;50.52;96956.25;5013054;28;20592;-60
2021/03/30 07:16:54;;;;;;;12.03;6.03;;;;;;;10.86;50.84;96943.25;5011492;28;20201;-60
2021/03/30 07:19:24;;;;;;;7.60;4.50;;;;;;;10.84;51.63;96945.34;5013450;28;20206;-62
2021/03/30 07:22:00;;;;;;;8.63;4.43;;;;;;;10.89;47.88;96947.19;5012616;28;20222;-61
2021/03/30 07:24:39;;;;;;;8.70;4.40;;;;;;;11.30;48.69;96940.94;5012735;28;20281;-62
2021/03/30 07:27:14;;;;;;;9.07;4.87;;;;;;;11.32;48.53;96940.66;5012709;28;20236;-60
2021/03/30 07:29:45;;;;;;;11.87;5.30;;;;;;;11.30;47.88;96940.16;5012904;28;20645;-60
2021/03/30 07:32:24;;;;;;;50.83;19.40;;;;;;;11.42;47.62;96945.88;5012871;28;20204;-62
2021/03/30 07:34:59;;;;;;;6.40;4.03;;;;;;;11.51;46.22;96939.06;5012924;28;20806;-60
2021/03/30 07:37:33;;;;;;;12.57;5.33;;;;;;;11.34;46.87;96938.59;5012989;28;20229;-61
2021/03/30 07:40:02;;;;;;;9.33;4.10;;;;;;;11.28;47.06;96934.44;5012685;28;20344;-60
2021/03/30 07:42:29;;;;;;;9.47;4.47;;;;;;;11.66;49.16;96933.84;5012778;28;20317;-61
2021/03/30 07:44:59;;;;;;;9.43;3.90;;;;;;;11.53;47.58;96935.19;5012724;28;20678;-60
2021/03/30 07:47:27;;;;;;;9.67;4.23;;;;;;;11.75;45.23;96936.72;5012560;28;20601;-63
2021/03/30 07:49:55;;;;;;;7.43;3.83;;;;;;;11.89;46.73;96935.91;5012573;28;20226;-63
2021/03/30 07:52:26;;;;;;;11.30;4.27;;;;;;;12.20;47.76;96930.59;5012537;28;20194;-62
2021/03/30 07:55:19;;;;;;;5.63;3.77;;;;;;;12.66;45.35;96924.06;5012874;28;20555;-62
2021/03/30 07:58:00;;;;;;;5.70;3.40;;;;;;;12.44;45.77;96924.47;5012334;28;20199;-61
2021/03/30 08:01:04;;;;;;;7.53;3.90;;;;;;;12.74;45.94;96927.94;5012211;28;20207;-61
2021/03/30 08:03:34;;;;;;;10.43;3.40;;;;;;;12.71;46.24;96925.84;5012380;28;20281;-60
2021/03/30 08:06:17;;;;;;;10.43;3.77;;;;;;;13.24;47.40;96924.97;5012592;28;20237;-61
2021/03/30 08:08:58;;;;;;;9.07;3.57;;;;;;;13.44;46.27;96924.00;5012163;28;20533;-60
2021/03/30 08:11:47;;;;;;;7.63;3.83;;;;;;;13.67;43.37;96918.00;5012379;28;20273;-61
2021/03/30 08:14:39;;;;;;;10.30;4.20;;;;;;;13.74;44.25;96917.69;5012248;28;20201;-62
2021/03/30 08:17:09;;;;;;;6.77;4.23;;;;;;;13.21;43.08;96915.06;5012074;28;20624;-60
2021/03/30 08:19:36;;;;;;;9.93;4.40;;;;;;;12.98;43.07;96914.97;5012035;28;20733;-61
2021/03/30 08:22:07;;;;;;;7.27;4.00;;;;;;;12.59;43.27;96921.00;5011723;28;20304;-61
2021/03/30 08:24:55;;;;;;;7.07;4.17;;;;;;;12.65;44.92;96912.06;5012006;28;20273;-61
2021/03/30 08:27:41;;;;;;;6.40;4.00;;;;;;;13.05;43.97;96905.75;5011795;28;20233;-62
2021/03/30 08:30:54;;;;;;;7.10;4.00;;;;;;;13.11;43.99;96901.28;5012238;28;20218;-61
2021/03/30 08:33:24;;;;;;;8.40;3.93;;;;;;;13.25;42.66;96907.47;5011705;28;20608;-61
2021/03/30 08:35:51;;;;;;;13.13;3.97;;;;;;;13.36;41.38;96906.31;5011696;28;20205;-60
2021/03/30 08:38:44;;;;;;;10.10;4.50;;;;;;;13.88;41.92;96902.13;5011633;28;20276;-61
2021/03/30 08:41:12;;;;;;;6.97;4.00;;;;;;;13.92;39.03;96900.50;5011681;28;20280;-62
2021/03/30 08:43:40;;;;;;;8.23;3.83;;;;;;;13.85;37.74;96900.81;5011014;28;20242;-62
2021/03/30 08:46:08;;;;;;;8.67;4.30;;;;;;;13.89;37.06;96899.22;5011492;28;20663;-60
2021/03/30 08:48:37;;;;;;;9.13;4.87;;;;;;;14.05;38.00;96905.03;5011165;28;20273;-62
2021/03/30 08:51:06;;;;;;;4.17;2.53;;;;;;;13.95;32.93;96905.94;5011354;28;20241;-60
2021/03/30 08:53:34;;;;;;;5.03;2.30;;;;;;;14.05;30.64;96902.41;5011400;28;20578;-59
2021/03/30 08:56:09;;;;;;;3.37;2.30;;;;;;;14.11;30.64;96896.06;5011454;28;20207;-62
2021/03/30 08:58:43;;;;;;;5.50;2.80;;;;;;;14.19;30.98;96888.41;5026465;28;20193;-61
2021/03/30 09:01:10;;;;;;;8.67;2.83;;;;;;;14.28;31.60;96893.00;5011348;28;20202;-63
2021/03/30 09:03:41;;;;;;;5.90;2.50;;;;;;;14.21;31.36;96896.72;5011245;28;20198;-62
2021/03/30 09:06:28;;;;;;;4.90;2.70;;;;;;;14.28;31.92;96891.16;5011049;28;20261;-61
2021/03/30 09:08:57;;;;;;;2.53;1.93;;;;;;;14.39;30.43;96887.38;5010458;28;20275;-61
2021/03/30 09:11:30;;;;;;;4.00;2.40;;;;;;;14.31;31.31;96890.59;5010861;28;20573;-59
2021/03/30 09:13:59;;;;;;;5.67;2.80;;;;;;;14.19;32.65;96890.25;5011599;28;20190;-61
2021/03/30 09:16:32;;;;;;;5.43;2.33;;;;;;;14.51;31.13;96885.09;5011208;28;20273;-60
2021/03/30 09:19:44;;;;;;;4.23;2.07;;;;;;;14.41;29.75;96885.25;5010822;28;20213;-60
2021/03/30 09:22:20;;;;;;;8.73;2.60;;;;;;;14.57;31.10;96889.22;5010660;28;20898;-62
2021/03/30 09:24:59;;;;;;;4.13;2.00;;;;;;;14.54;29.65;96886.41;5011427;28;20361;-60
2021/03/30 09:27:33;;;;;;;9.77;5.43;;;;;;;14.45;30.42;96885.44;5010727;28;20300;-60
2021/03/30 09:30:05;;;;;;;6.93;4.57;;;;;;;14.31;30.98;96877.50;5010143;28;20669;-61
2021/03/30 09:32:33;;;;;;;4.33;2.33;;;;;;;14.42;30.12;96871.13;5010869;28;20202;-62
2021/03/30 09:35:08;;;;;;;4.50;2.20;;;;;;;14.41;31.71;96874.78;5010839;28;20261;-62
2021/03/30 09:37:41;;;;;;;8.30;3.57;;;;;;;14.38;33.76;96875.38;5010752;28;20198;-61
2021/03/30 09:42:55;;;;;;;4.90;3.00;;;;;;;14.91;35.96;96865.41;5010317;28;20331;-60
2021/03/30 09:45:25;;;;;;;5.33;3.00;;;;;;;15.20;33.37;96864.38;5010519;28;20280;-61
2021/03/30 09:47:54;;;;;;;4.37;2.70;;;;;;;15.27;29.62;96865.56;5010179;28;20237;-61
2021/03/30 09:50:22;;;;;;;4.27;1.93;;;;;;;15.16;29.27;96858.94;5010261;28;20632;-61
2021/03/30 09:52:50;;;;;;;6.43;3.13;;;;;;;15.55;36.28;96845.44;5010298;28;20195;-61
2021/03/30 09:55:29;;;;;;;7.20;3.80;;;;;;;15.87;34.54;96850.56;5010359;28;20716;-59
2021/03/30 09:58:05;;;;;;;9.03;4.20;;;;;;;15.79;34.29;96850.50;5010465;28;20281;-60
2021/03/30 10:00:34;;;;;;;4.87;3.37;;;;;;;16.00;35.09;96848.22;5010218;28;20206;-61
2021/03/30 10:03:02;;;;;;;5.57;2.83;;;;;;;16.15;32.83;96853.13;5010350;28;20579;-60
2021/03/30 10:05:38;;;;;;;5.60;3.30;;;;;;;15.88;32.76;96859.22;5010216;28;20241;-62
2021/03/30 10:08:17;;;;;;;4.87;3.10;;;;;;;15.57;33.10;96838.06;5010139;28;20321;-61
2021/03/30 10:10:49;;;;;;;9.03;3.50;;;;;;;15.66;33.18;96838.16;5009778;28;20209;-61
2021/03/30 10:13:26;;;;;;;19.23;4.00;;;;;;;15.84;36.25;96834.66;5010285;28;20198;-61
2021/03/30 10:15:55;;;;;;;7.70;3.87;;;;;;;15.58;34.32;96833.59;5010251;28;20202;-60
2021/03/30 10:18:26;;;;;;;13.13;3.20;;;;;;;15.30;31.38;96828.31;5010571;28;20289;-60
2021/03/30 10:20:57;;;;;;;6.70;3.03;;;;;;;15.22;31.17;96831.63;5010588;28;20194;-60
2021/03/30 10:23:27;;;;;;;4.97;3.20;;;;;;;15.29;32.52;96820.78;5013484;28;20561;-61
2021/03/30 10:25:54;;;;;;;5.67;2.90;;;;;;;15.07;30.35;96830.03;5014340;28;20198;-61
2021/03/30 10:28:30;;;;;;;5.93;2.90;;;;;;;14.83;31.38;96818.16;5013860;28;20280;-62
2021/03/30 10:31:02;;;;;;;9.00;3.20;;;;;;;14.84;33.08;96822.34;5014160;28;20296;-61
2021/03/30 10:33:39;;;;;;;4.10;3.10;;;;;;;15.14;33.75;96819.19;5014249;28;20242;-60
2021/03/30 10:36:09;;;;;;;4.10;2.53;;;;;;;15.34;30.67;96818.06;5013895;28;20205;-60
2021/03/30 10:38:36;;;;;;;4.83;2.50;;;;;;;15.66;27.85;96819.81;5014150;28;20202;-61
2021/03/30 10:41:07;;;;;;;7.27;2.23;;;;;;;15.88;28.09;96819.91;5013879;28;20194;-61
2021/03/30 10:43:35;;;;;;;4.10;1.97;;;;;;;15.59;26.38;96808.97;5013862;28;20234;-59
2021/03/30 10:46:18;;;;;;;8.53;4.90;;;;;;;15.38;27.23;96817.19;5014040;28;20225;-61
2021/03/30 10:49:01;;;;;;;3.40;2.40;;;;;;;15.40;27.62;96807.16;5013867;28;20241;-61
2021/03/30 10:51:30;;;;;;;3.17;2.17;;;;;;;15.40;27.29;96807.16;5013832;28;20723;-61
2021/03/30 10:53:58;;;;;;;3.47;2.00;;;;;;;15.58;27.33;96802.94;5014220;28;20229;-62
2021/03/30 10:56:26;;;;;;;3.70;2.30;;;;;;;15.35;28.13;96804.66;5013569;28;20313;-61
2021/03/30 10:58:53;;;;;;;4.87;2.00;;;;;;;15.49;29.40;96797.56;5013768;28;20210;-61
2021/03/30 11:01:20;;;;;;;3.17;1.70;;;;;;;15.71;28.79;96790.88;5012972;28;20288;-59
2021/03/30 11:03:47;;;;;;;5.20;2.60;;;;;;;15.99;29.46;96792.38;5013403;28;20194;-63
2021/03/30 11:06:14;;;;;;;6.40;3.77;;;;;;;16.05;27.06;96782.53;5013361;28;20301;-60
2021/03/30 11:08:41;;;;;;;3.20;2.27;;;;;;;15.81;27.58;96794.06;5013332;28;20226;-63
2021/03/30 11:11:10;;;;;;;5.20;2.30;;;;;;;15.65;28.15;96782.34;5013565;28;20344;-61
2021/03/30 11:13:37;;;;;;;5.10;2.20;;;;;;;15.80;27.56;96786.50;5013331;28;20197;-62
2021/03/30 11:16:12;;;;;;;3.60;2.23;;;;;;;15.56;27.16;96786.72;5013143;28;20209;-62
2021/03/30 11:18:39;;;;;;;5.63;2.20;;;;;;;15.36;27.17;96780.00;5013086;28;20194;-60
2021/03/30 11:21:06;;;;;;;4.13;1.67;;;;;;;15.41;26.92;96772.06;5013507;28;20660;-60
2021/03/30 11:23:33;;;;;;;4.80;2.10;;;;;;;15.73;28.26;96779.03;5013407;28;20202;-62
2021/03/30 11:26:00;;;;;;;4.63;2.10;;;;;;;15.64;29.17;96775.53;5013062;28;20210;-61
2021/03/30 11:28:31;;;;;;;4.80;2.60;;;;;;;15.63;29.65;96776.63;5012870;28;20253;-61
2021/03/30 11:31:01;;;;;;;4.00;2.13;;;;;;;15.86;29.17;96769.59;5012979;28;20191;-62
2021/03/30 11:33:32;;;;;;;5.20;2.77;;;;;;;15.80;28.77;96770.75;5013147;28;20195;-61
2021/03/30 11:36:03;;;;;;;6.90;2.30;;;;;;;15.77;29.23;96772.13;5013210;28;20210;-62
2021/03/30 11:38:29;;;;;;;6.03;2.50;;;;;;;15.98;28.73;96764.63;5013000;28;20285;-61
2021/03/30 11:40:57;;;;;;;4.50;2.37;;;;;;;16.08;28.50;96759.16;5012834;28;20234;-62
2021/03/30 11:43:23;;;;;;;4.80;2.40;;;;;;;16.02;28.54;96767.41;5012387;28;20626;-62
2021/03/30 11:45:50;;;;;;;5.87;2.23;;;;;;;15.97;27.75;96759.66;5013151;28;20217;-60
2021/03/30 11:48:17;;;;;;;5.13;2.00;;;;;;;16.15;28.89;96750.84;5012827;28;20337;-62
2021/03/30 11:50:45;;;;;;;4.33;1.93;;;;;;;16.29;26.43;96757.59;5012856;28;20199;-60
2021/03/30 11:53:11;;;;;;;6.00;2.27;;;;;;;16.05;26.47;96745.81;5012516;28;20256;-62
2021/03/30 11:55:38;;;;;;;4.57;2.20;;;;;;;16.18;27.59;96745.81;5012575;28;20195;-60